Time;durP1;ratioP1;P1;durP2;ratioP2;P2;SDS_P1;SDS_P2;PMS_P1;PMS_P2;Temp;Humidity;BMP_temperature;BMP_pressure;BME280_temperature;BME280_humidity;BME280_pressure;Samples;Min_cycle;Max_cycle;Signal;HPM_P1;HPM_P2
2023/06/14 00:02:09;;;;;;;13.32;11.80;;;23.20;99.90;;;;;;5031962;28;20041;-76
2023/06/14 00:04:36;;;;;;;16.13;13.07;;;23.20;99.90;;;;;;5032454;28;20036;-75
2023/06/14 00:07:02;;;;;;;16.58;13.02;;;23.10;99.90;;;;;;5032447;28;20025;-76
2023/06/14 00:09:28;;;;;;;18.77;13.52;;;23.00;99.90;;;;;;5032371;28;20061;-75
2023/06/14 00:11:54;;;;;;;17.13;12.93;;;23.00;99.90;;;;;;5031978;28;20045;-76
2023/06/14 00:14:20;;;;;;;16.35;14.77;;;22.90;99.90;;;;;;5032471;28;20041;-75
2023/06/14 00:16:47;;;;;;;17.75;16.00;;;22.90;99.90;;;;;;5031173;28;20037;-75
2023/06/14 00:19:14;;;;;;;13.75;12.35;;;23.00;99.90;;;;;;5033181;28;20466;-75
2023/06/14 00:21:40;;;;;;;14.32;12.45;;;22.90;99.90;;;;;;5033332;28;20040;-76
2023/06/14 00:24:07;;;;;;;16.15;13.38;;;22.80;99.90;;;;;;5048334;28;20048;-76
2023/06/14 00:26:33;;;;;;;15.77;13.68;;;22.70;99.90;;;;;;5031970;28;20029;-76
2023/06/14 00:28:59;;;;;;;14.70;13.20;;;22.70;99.90;;;;;;5033537;28;20045;-75
2023/06/14 00:31:25;;;;;;;15.63;12.77;;;22.80;99.90;;;;;;5032648;28;20041;-76
2023/06/14 00:33:52;;;;;;;19.27;13.43;;;22.80;99.90;;;;;;5032902;28;20033;-75
2023/06/14 00:36:18;;;;;;;16.23;13.63;;;22.80;99.90;;;;;;5032923;28;20052;-75
2023/06/14 00:38:44;;;;;;;15.50;13.65;;;22.90;99.90;;;;;;5033257;28;20037;-76
2023/06/14 00:41:10;;;;;;;14.82;13.00;;;22.80;99.90;;;;;;5032911;28;20030;-76
2023/06/14 00:43:36;;;;;;;15.10;13.57;;;22.80;99.90;;;;;;5032164;28;20466;-75
2023/06/14 00:46:02;;;;;;;16.00;13.02;;;22.90;99.90;;;;;;5032270;28;20033;-76
2023/06/14 00:48:28;;;;;;;18.05;14.02;;;22.80;99.90;;;;;;5045762;28;20037;-75
2023/06/14 00:50:54;;;;;;;16.35;13.45;;;22.80;99.90;;;;;;5045145;28;20025;-75
2023/06/14 00:53:22;;;;;;;16.40;13.75;;;22.80;99.90;;;;;;5032138;28;20041;-76
2023/06/14 00:55:48;;;;;;;15.80;14.10;;;22.80;99.90;;;;;;5031688;28;20029;-75
2023/06/14 00:58:14;;;;;;;17.17;14.30;;;22.80;99.90;;;;;;5031752;28;20044;-76
2023/06/14 01:00:41;;;;;;;16.10;13.43;;;22.80;99.90;;;;;;5032163;28;20033;-76
2023/06/14 01:03:07;;;;;;;16.48;13.15;;;22.70;99.90;;;;;;5031227;28;20025;-75
2023/06/14 01:05:33;;;;;;;16.13;14.35;;;22.80;99.90;;;;;;5032591;28;20021;-75
2023/06/14 01:08:20;;;;;;;14.98;13.38;;;22.80;99.90;;;;;;5048107;28;20037;-75
2023/06/14 01:11:04;;;;;;;16.30;13.45;;;22.90;99.90;;;;;;5059455;28;20026;-76
2023/06/14 01:13:40;;;;;;;17.10;13.77;;;22.90;99.90;;;;;;5027968;28;20053;-75
2023/06/14 01:16:07;;;;;;;19.38;14.15;;;22.90;99.90;;;;;;5043871;28;20034;-75
2023/06/14 01:18:33;;;;;;;19.67;13.63;;;22.90;99.90;;;;;;5027761;28;20030;-75
2023/06/14 01:20:59;;;;;;;18.60;14.13;;;22.80;99.90;;;;;;5034675;28;20021;-75
2023/06/14 01:23:32;;;;;;;16.88;15.10;;;22.80;99.90;;;;;;5032480;28;20029;-75
2023/06/14 01:25:58;;;;;;;15.70;13.73;;;22.80;99.90;;;;;;5046661;28;20471;-75
2023/06/14 01:28:24;;;;;;;18.33;14.52;;;22.80;99.90;;;;;;5047928;28;20026;-76
2023/06/14 01:30:53;;;;;;;16.55;14.13;;;22.70;99.90;;;;;;5013365;28;20044;-76
2023/06/14 01:33:20;;;;;;;18.75;14.70;;;22.70;99.90;;;;;;5014944;28;20030;-75
2023/06/14 01:35:55;;;;;;;16.95;15.15;;;22.80;99.90;;;;;;4998004;28;20052;-75
2023/06/14 01:38:25;;;;;;;16.65;14.25;;;22.70;99.90;;;;;;5046991;28;20497;-75
2023/06/14 01:40:52;;;;;;;18.20;13.98;;;22.80;99.90;;;;;;5032095;28;20025;-75
2023/06/14 01:43:19;;;;;;;15.38;13.77;;;22.80;99.90;;;;;;5014920;28;20025;-75
2023/06/14 01:45:47;;;;;;;16.58;14.07;;;22.80;99.90;;;;;;5029982;28;20396;-75
2023/06/14 01:48:13;;;;;;;16.13;14.52;;;22.80;99.90;;;;;;5025690;28;20045;-76
2023/06/14 01:50:39;;;;;;;18.40;14.70;;;22.70;99.90;;;;;;5029144;28;20044;-76
2023/06/14 01:53:09;;;;;;;18.65;15.20;;;22.60;99.90;;;;;;5014602;28;20414;-76
2023/06/14 01:55:37;;;;;;;17.85;16.05;;;22.60;99.90;;;;;;5014670;28;20036;-75
2023/06/14 01:58:06;;;;;;;20.40;15.75;;;22.60;99.90;;;;;;5032150;28;20037;-76
2023/06/14 02:00:32;;;;;;;17.75;15.68;;;22.60;99.90;;;;;;5029187;28;20038;-76
2023/06/14 02:02:58;;;;;;;19.15;15.07;;;22.50;99.90;;;;;;5024051;28;20022;-76
2023/06/14 02:05:24;;;;;;;19.02;15.50;;;22.50;99.90;;;;;;5027396;28;20630;-76
2023/06/14 02:07:51;;;;;;;17.08;15.23;;;22.50;99.90;;;;;;5024801;28;20048;-76
2023/06/14 02:10:17;;;;;;;18.80;15.65;;;22.40;99.90;;;;;;5025840;28;20033;-75
2023/06/14 02:12:44;;;;;;;17.67;15.77;;;22.40;99.90;;;;;;5034657;28;20033;-75
2023/06/14 02:15:16;;;;;;;18.33;15.35;;;22.40;99.90;;;;;;5032381;28;20982;-75
2023/06/14 02:17:49;;;;;;;19.42;15.38;;;22.50;99.90;;;;;;5017812;28;20451;-75
2023/06/14 02:20:15;;;;;;;19.23;15.27;;;22.50;99.90;;;;;;5017327;28;20034;-75
2023/06/14 02:22:41;;;;;;;17.35;15.25;;;22.50;99.90;;;;;;5016732;28;20053;-76
2023/06/14 02:25:08;;;;;;;18.20;14.85;;;22.50;99.90;;;;;;5034570;28;20041;-75
2023/06/14 02:27:34;;;;;;;16.73;14.55;;;22.50;99.90;;;;;;5016751;28;20029;-76
2023/06/14 02:30:01;;;;;;;17.45;14.60;;;22.40;99.90;;;;;;5033050;28;20053;-75
2023/06/14 02:32:27;;;;;;;20.70;15.55;;;22.40;99.90;;;;;;5015740;28;20034;-75
2023/06/14 02:34:54;;;;;;;16.52;14.60;;;22.40;99.90;;;;;;5033143;28;20482;-76
2023/06/14 02:37:20;;;;;;;17.77;15.23;;;22.40;99.90;;;;;;5021729;28;20029;-75
2023/06/14 02:39:46;;;;;;;17.88;15.23;;;22.30;99.90;;;;;;5017627;28;20053;-76
2023/06/14 02:42:12;;;;;;;16.17;13.90;;;22.30;99.90;;;;;;5030979;28;20022;-76
2023/06/14 02:44:39;;;;;;;23.48;16.13;;;22.30;99.90;;;;;;5033811;28;20041;-75
2023/06/14 02:47:05;;;;;;;17.13;15.13;;;22.30;99.90;;;;;;5035199;28;20050;-75
2023/06/14 02:49:32;;;;;;;20.30;15.77;;;22.30;99.90;;;;;;5055238;28;20040;-76
2023/06/14 02:51:58;;;;;;;18.25;15.93;;;22.20;99.90;;;;;;5038760;28;20034;-76
2023/06/14 02:54:24;;;;;;;17.70;15.73;;;22.10;99.90;;;;;;5033969;28;20041;-75
2023/06/14 02:56:50;;;;;;;18.52;16.05;;;22.10;99.90;;;;;;5034886;28;20036;-75
2023/06/14 02:59:16;;;;;;;20.58;15.52;;;22.00;99.90;;;;;;5033780;28;20040;-75
2023/06/14 03:01:43;;;;;;;19.02;15.82;;;22.00;99.90;;;;;;5033049;28;20037;-76
2023/06/14 03:04:09;;;;;;;19.58;15.65;;;22.00;99.90;;;;;;5035015;28;20177;-76
2023/06/14 03:06:36;;;;;;;18.73;15.90;;;22.00;99.90;;;;;;5033623;28;20029;-75
2023/06/14 03:09:04;;;;;;;22.15;15.25;;;22.00;99.90;;;;;;5035023;28;20036;-75
2023/06/14 03:11:31;;;;;;;18.95;15.90;;;22.00;99.90;;;;;;5033525;28;20025;-75
2023/06/14 03:13:57;;;;;;;17.55;15.65;;;22.00;99.90;;;;;;5033344;28;20048;-75
2023/06/14 03:16:24;;;;;;;18.98;15.65;;;22.00;99.90;;;;;;5015308;28;20025;-75
2023/06/14 03:18:53;;;;;;;19.30;15.65;;;22.00;99.90;;;;;;5033645;28;20029;-75
2023/06/14 03:21:20;;;;;;;17.05;15.23;;;21.90;99.90;;;;;;5033337;28;20382;-75
2023/06/14 03:23:47;;;;;;;19.90;16.48;;;21.90;99.90;;;;;;5033628;28;20375;-75
2023/06/14 03:26:14;;;;;;;19.60;16.80;;;21.90;99.90;;;;;;5033206;28;20022;-76
2023/06/14 03:28:41;;;;;;;18.55;16.17;;;21.80;99.90;;;;;;5000341;28;20045;-75
2023/06/14 03:31:08;;;;;;;19.27;16.98;;;21.80;99.90;;;;;;5016148;28;20030;-75
2023/06/14 03:33:35;;;;;;;18.33;16.45;;;21.80;99.90;;;;;;5033251;28;20048;-75
2023/06/14 03:36:01;;;;;;;19.33;17.05;;;21.70;99.90;;;;;;5034027;28;20029;-75
2023/06/14 03:38:28;;;;;;;20.27;16.95;;;21.70;99.90;;;;;;5033353;28;20033;-75
2023/06/14 03:40:54;;;;;;;20.83;17.23;;;21.70;99.90;;;;;;5034001;28;20029;-75
2023/06/14 03:43:20;;;;;;;20.02;16.20;;;21.60;99.90;;;;;;5032945;28;20026;-75
2023/06/14 03:45:46;;;;;;;19.52;16.35;;;21.60;99.90;;;;;;5032530;28;20037;-76
2023/06/14 03:48:12;;;;;;;20.48;16.98;;;21.60;99.90;;;;;;5043989;28;20045;-75
2023/06/14 03:50:39;;;;;;;21.45;16.65;;;21.50;99.90;;;;;;5053656;28;20044;-76
2023/06/14 03:53:05;;;;;;;19.98;16.27;;;21.40;99.90;;;;;;5016375;28;20025;-75
2023/06/14 03:55:31;;;;;;;19.48;15.43;;;21.40;99.90;;;;;;5032845;28;20037;-75
2023/06/14 03:57:57;;;;;;;20.80;16.80;;;21.40;99.90;;;;;;5015836;28;20033;-75
2023/06/14 04:00:23;;;;;;;20.73;16.02;;;21.50;99.90;;;;;;5031982;28;20040;-75
2023/06/14 04:02:49;;;;;;;19.23;16.98;;;21.50;99.90;;;;;;5032765;28;20410;-75
2023/06/14 04:05:16;;;;;;;21.20;16.02;;;21.40;99.90;;;;;;5033590;28;20038;-75
2023/06/14 04:07:44;;;;;;;18.73;16.80;;;21.40;99.90;;;;;;5033930;28;20029;-75
2023/06/14 04:10:11;;;;;;;21.23;15.90;;;21.30;99.90;;;;;;5065286;28;20485;-75
2023/06/14 04:12:37;;;;;;;19.83;16.85;;;21.30;99.90;;;;;;5049022;28;20041;-75
2023/06/14 04:15:06;;;;;;;21.33;17.15;;;21.30;99.90;;;;;;5033152;28;20044;-74
2023/06/14 04:17:35;;;;;;;20.88;16.77;;;21.30;99.90;;;;;;5032372;28;20025;-75
2023/06/14 04:20:03;;;;;;;20.77;17.42;;;21.20;99.90;;;;;;5048557;28;20032;-75
2023/06/14 04:22:30;;;;;;;23.55;17.42;;;21.20;99.90;;;;;;5029184;28;20057;-76
2023/06/14 04:24:56;;;;;;;22.70;17.33;;;21.20;99.90;;;;;;5013657;28;20033;-75
2023/06/14 04:27:25;;;;;;;20.65;17.90;;;21.10;99.90;;;;;;5027697;28;20041;-75
2023/06/14 04:29:56;;;;;;;20.98;18.58;;;21.10;99.90;;;;;;5044797;28;20033;-75
2023/06/14 04:32:26;;;;;;;21.45;18.45;;;21.10;99.90;;;;;;5027592;28;20053;-75
2023/06/14 04:35:03;;;;;;;20.33;18.27;;;21.00;99.90;;;;;;5028948;28;20042;-76
2023/06/14 04:37:30;;;;;;;22.98;19.35;;;21.00;99.90;;;;;;5062580;28;20045;-75
2023/06/14 04:39:56;;;;;;;23.48;18.73;;;21.00;99.90;;;;;;5031815;28;20033;-75
2023/06/14 04:42:25;;;;;;;22.15;19.42;;;20.90;99.90;;;;;;5031715;28;20045;-75
2023/06/14 04:44:51;;;;;;;26.58;20.10;;;20.90;99.90;;;;;;5015806;28;20037;-76
2023/06/14 04:47:17;;;;;;;21.67;19.33;;;20.90;99.90;;;;;;5034611;28;20052;-76
2023/06/14 04:49:53;;;;;;;23.27;19.30;;;20.90;99.90;;;;;;5069605;28;20394;-77
2023/06/14 04:52:20;;;;;;;21.60;19.25;;;20.90;99.90;;;;;;5084962;28;20051;-77
2023/06/14 04:54:47;;;;;;;23.55;18.17;;;21.00;99.90;;;;;;5067940;28;20028;-77
2023/06/14 04:57:14;;;;;;;21.65;18.08;;;21.10;99.90;;;;;;5067964;28;20055;-77
2023/06/14 04:59:40;;;;;;;21.38;18.45;;;21.10;99.90;;;;;;5068106;28;20027;-77
2023/06/14 05:02:06;;;;;;;24.63;18.80;;;21.10;99.90;;;;;;5044088;28;20037;-77
2023/06/14 05:04:32;;;;;;;23.33;17.75;;;21.20;99.90;;;;;;5049313;28;20390;-77
2023/06/14 05:06:59;;;;;;;21.33;17.92;;;21.20;99.90;;;;;;5032998;28;20041;-77
2023/06/14 05:09:25;;;;;;;21.58;17.48;;;21.40;99.90;;;;;;5027811;28;20030;-78
2023/06/14 05:11:51;;;;;;;21.55;16.95;;;21.40;99.90;;;;;;5011434;28;20586;-77
2023/06/14 05:14:18;;;;;;;23.25;16.88;;;21.50;99.90;;;;;;5029330;28;20029;-77
2023/06/14 05:16:44;;;;;;;17.98;15.57;;;21.60;99.90;;;;;;5028468;28;20033;-78
2023/06/14 05:19:10;;;;;;;20.85;17.40;;;21.80;99.90;;;;;;5044259;28;20037;-77
2023/06/14 05:21:37;;;;;;;19.92;17.73;;;21.90;99.90;;;;;;5044381;28;20034;-78
2023/06/14 05:24:04;;;;;;;19.08;16.95;;;22.10;99.90;;;;;;5043916;28;20382;-76
2023/06/14 05:26:30;;;;;;;19.35;16.60;;;22.20;99.90;;;;;;5028711;28;20030;-75
2023/06/14 05:28:57;;;;;;;19.13;16.67;;;22.30;99.90;;;;;;5028989;28;20045;-74
2023/06/14 05:31:27;;;;;;;20.00;15.75;;;22.40;99.90;;;;;;5043457;28;20396;-75
2023/06/14 05:33:54;;;;;;;20.88;18.83;;;22.60;99.90;;;;;;5044128;28;20022;-75
2023/06/14 05:36:21;;;;;;;20.77;18.05;;;22.70;99.90;;;;;;5018517;28;20030;-75
2023/06/14 05:38:47;;;;;;;20.45;16.58;;;22.80;99.90;;;;;;5024005;28;20030;-75
2023/06/14 05:41:13;;;;;;;22.17;16.60;;;23.00;99.90;;;;;;5027097;28;20033;-76
2023/06/14 05:43:39;;;;;;;18.92;16.92;;;23.10;99.90;;;;;;5043612;28;20044;-75
2023/06/14 05:46:05;;;;;;;18.90;16.63;;;23.00;99.90;;;;;;5059610;28;20049;-75
2023/06/14 05:48:31;;;;;;;21.90;17.48;;;23.00;99.90;;;;;;5060261;28;20637;-75
2023/06/14 05:50:59;;;;;;;19.27;17.27;;;23.00;99.90;;;;;;5027019;28;20040;-75
2023/06/14 05:53:25;;;;;;;20.90;17.70;;;23.00;99.90;;;;;;5043430;28;20032;-76
2023/06/14 05:55:54;;;;;;;22.13;17.27;;;22.80;99.90;;;;;;5043497;28;20031;-75
2023/06/14 05:58:21;;;;;;;21.50;18.27;;;22.70;99.90;;;;;;5028326;28;20487;-75
2023/06/14 06:00:48;;;;;;;20.55;17.75;;;22.70;99.90;;;;;;5015539;28;20041;-75
2023/06/14 06:03:14;;;;;;;20.15;16.48;;;22.60;99.90;;;;;;5015272;28;20026;-76
2023/06/14 06:05:40;;;;;;;20.65;17.90;;;22.80;99.90;;;;;;5014754;28;20034;-75
2023/06/14 06:08:06;;;;;;;22.15;17.75;;;22.80;99.90;;;;;;5046485;28;20033;-75
2023/06/14 06:10:32;;;;;;;21.90;16.05;;;22.90;99.90;;;;;;5046547;28;20037;-75
2023/06/14 06:12:58;;;;;;;18.95;16.95;;;23.10;99.90;;;;;;5015035;28;20566;-76
2023/06/14 06:15:24;;;;;;;22.15;16.15;;;23.20;99.90;;;;;;5029424;28;20034;-76
2023/06/14 06:17:51;;;;;;;18.95;16.92;;;23.20;99.90;;;;;;5030033;28;20037;-75
2023/06/14 06:20:17;;;;;;;19.20;16.98;;;23.40;99.90;;;;;;5029880;28;20026;-75
2023/06/14 06:22:43;;;;;;;19.60;16.13;;;23.60;99.90;;;;;;5029777;28;20045;-75
2023/06/14 06:25:09;;;;;;;19.58;14.50;;;23.80;99.90;;;;;;5013513;28;20414;-75
2023/06/14 06:27:40;;;;;;;19.45;14.90;;;23.90;99.90;;;;;;5046514;28;20034;-75
2023/06/14 06:30:06;;;;;;;19.95;15.80;;;24.00;99.90;;;;;;5014180;28;20036;-75
2023/06/14 06:32:32;;;;;;;17.02;14.73;;;24.30;99.90;;;;;;5013147;28;20034;-78
2023/06/14 06:35:00;;;;;;;19.92;13.93;;;24.50;99.90;;;;;;5014740;28;20033;-77
2023/06/14 06:37:26;;;;;;;17.15;13.75;;;24.70;99.90;;;;;;5028853;28;20034;-77
2023/06/14 06:39:52;;;;;;;19.15;14.52;;;24.80;99.90;;;;;;5046349;28;20030;-78
2023/06/14 06:42:18;;;;;;;20.60;14.85;;;24.90;99.90;;;;;;5014234;28;20037;-77
2023/06/14 06:44:44;;;;;;;19.67;14.35;;;24.80;99.90;;;;;;5029770;28;20041;-78
2023/06/14 06:47:11;;;;;;;18.00;14.00;;;24.60;99.90;;;;;;5013549;28;20041;-78
2023/06/14 06:49:37;;;;;;;15.32;13.25;;;24.70;99.90;;;;;;5014347;28;20057;-78
2023/06/14 06:52:04;;;;;;;21.73;12.93;;;24.70;99.90;;;;;;5013490;28;20034;-78
2023/06/14 06:54:31;;;;;;;19.90;13.50;;;24.70;99.90;;;;;;5029325;28;20033;-77
2023/06/14 06:56:57;;;;;;;16.88;14.18;;;24.70;99.90;;;;;;5012778;28;20042;-77
2023/06/14 06:59:23;;;;;;;18.50;14.05;;;24.80;99.90;;;;;;5029366;28;20029;-77
2023/06/14 07:01:49;;;;;;;14.57;12.93;;;24.90;99.90;;;;;;5028495;28;20045;-77
2023/06/14 07:04:16;;;;;;;18.25;13.75;;;24.90;99.90;;;;;;5012627;28;20088;-77
2023/06/14 07:06:42;;;;;;;16.90;13.23;;;25.00;99.90;;;;;;5012535;28;20475;-78
2023/06/14 07:09:12;;;;;;;18.35;13.88;;;25.10;99.90;;;;;;5028930;28;20053;-78
2023/06/14 07:11:43;;;;;;;16.37;12.20;;;25.10;99.90;;;;;;5011344;28;20041;-77
2023/06/14 07:14:09;;;;;;;14.25;12.10;;;24.90;99.90;;;;;;5029165;28;20026;-77
2023/06/14 07:16:35;;;;;;;18.63;12.57;;;25.00;99.90;;;;;;5028440;28;20038;-78
2023/06/14 07:19:04;;;;;;;14.70;13.15;;;25.00;99.90;;;;;;5028766;28;20055;-77
2023/06/14 07:21:30;;;;;;;18.02;13.50;;;24.90;99.90;;;;;;5028730;28;20034;-78
2023/06/14 07:23:56;;;;;;;13.85;11.75;;;25.00;99.90;;;;;;5028897;28;20033;-77
2023/06/14 07:26:22;;;;;;;20.40;13.07;;;24.90;99.90;;;;;;5028591;28;20038;-78
2023/06/14 07:28:49;;;;;;;12.88;11.55;;;25.00;99.90;;;;;;5028798;28;20034;-78
2023/06/14 07:31:15;;;;;;;16.05;13.25;;;25.20;99.90;;;;;;5012814;28;20038;-77
2023/06/14 07:33:42;;;;;;;16.30;13.00;;;25.20;99.90;;;;;;5028513;28;20498;-77
2023/06/14 07:36:08;;;;;;;16.08;13.20;;;25.30;99.90;;;;;;5028497;28;20399;-77
2023/06/14 07:38:34;;;;;;;15.88;12.13;;;25.50;99.90;;;;;;5028577;28;20372;-78
2023/06/14 07:41:00;;;;;;;17.23;12.95;;;25.70;99.90;;;;;;5013127;28;20032;-77
2023/06/14 07:43:27;;;;;;;14.75;12.30;;;25.90;99.90;;;;;;5028678;28;20030;-77
2023/06/14 07:45:53;;;;;;;18.42;13.23;;;25.90;99.90;;;;;;5011267;28;20034;-78
2023/06/14 07:48:19;;;;;;;15.27;12.25;;;25.90;99.90;;;;;;5019962;28;20046;-77
2023/06/14 07:50:45;;;;;;;17.65;13.13;;;26.00;99.90;;;;;;5011800;28;20086;-77
2023/06/14 07:53:11;;;;;;;13.27;11.90;;;26.20;99.90;;;;;;5013127;28;20029;-77
2023/06/14 07:55:38;;;;;;;13.88;11.48;;;26.30;99.90;;;;;;5012763;28;20364;-77
2023/06/14 07:58:05;;;;;;;16.23;12.10;;;26.50;99.90;;;;;;5028267;28;20021;-78
2023/06/14 08:00:32;;;;;;;13.98;11.82;;;26.60;99.90;;;;;;5027328;28;21108;-77
2023/06/14 08:03:01;;;;;;;16.40;11.43;;;26.70;99.90;;;;;;5011506;28;20038;-77
2023/06/14 08:05:27;;;;;;;13.43;10.98;;;26.80;99.90;;;;;;5011552;28;20359;-78
2023/06/14 08:07:53;;;;;;;20.10;11.98;;;26.80;99.90;;;;;;5028021;28;20038;-77
2023/06/14 08:10:20;;;;;;;12.68;11.38;;;26.90;99.90;;;;;;5012640;28;20038;-77
2023/06/14 08:12:46;;;;;;;12.88;11.57;;;27.00;99.90;;;;;;5028136;28;20379;-78
2023/06/14 08:15:12;;;;;;;14.23;12.05;;;27.10;99.90;;;;;;5012131;28;20541;-77
2023/06/14 08:17:38;;;;;;;17.88;11.63;;;27.30;99.90;;;;;;5027729;28;20030;-78
2023/06/14 08:20:05;;;;;;;14.10;12.60;;;27.50;99.90;;;;;;5011773;28;20375;-77
2023/06/14 08:22:33;;;;;;;16.10;12.15;;;27.40;99.90;;;;;;5012384;28;20475;-77
2023/06/14 08:25:01;;;;;;;13.50;11.73;;;27.40;99.90;;;;;;5012713;28;20049;-76
2023/06/14 08:27:27;;;;;;;15.23;11.68;;;27.50;99.90;;;;;;5027511;28;20030;-78
2023/06/14 08:29:53;;;;;;;14.77;11.40;;;27.60;99.90;;;;;;5027558;28;20034;-78
2023/06/14 08:32:19;;;;;;;14.18;11.77;;;27.90;99.90;;;;;;5026592;28;20034;-78
2023/06/14 08:34:45;;;;;;;13.10;11.43;;;28.00;99.90;;;;;;5027514;28;20042;-78
2023/06/14 08:37:12;;;;;;;12.40;11.20;;;28.10;99.90;;;;;;5012079;28;20030;-78
2023/06/14 08:39:38;;;;;;;11.88;10.68;;;28.10;99.90;;;;;;5012566;28;20033;-77
2023/06/14 08:42:05;;;;;;;11.50;10.20;;;28.00;99.90;;;;;;5043857;28;20523;-78
2023/06/14 08:44:32;;;;;;;19.92;11.23;;;28.10;99.90;;;;;;5043823;28;20471;-78
2023/06/14 08:46:59;;;;;;;15.27;11.48;;;28.20;99.90;;;;;;5042833;28;20431;-77
2023/06/14 08:49:26;;;;;;;12.93;10.80;;;28.30;99.90;;;;;;5011019;28;20069;-77
2023/06/14 08:51:59;;;;;;;12.35;10.45;;;28.50;99.90;;;;;;5010862;28;20026;-77
2023/06/14 08:54:34;;;;;;;13.80;10.18;;;28.70;99.90;;;;;;5027470;28;20026;-77
2023/06/14 08:57:00;;;;;;;16.50;11.23;;;28.90;99.90;;;;;;5011983;28;20037;-77
2023/06/14 08:59:26;;;;;;;12.30;11.07;;;28.90;99.90;;;;;;5027615;28;20026;-77
2023/06/14 09:01:54;;;;;;;12.18;10.85;;;29.00;99.90;;;;;;5026313;28;20053;-77
2023/06/14 09:04:29;;;;;;;14.18;11.02;;;29.10;99.90;;;;;;5011038;28;20379;-77
2023/06/14 09:06:56;;;;;;;12.10;10.90;;;29.30;99.90;;;;;;5010818;28;20109;-77
2023/06/14 09:09:28;;;;;;;14.77;12.10;;;29.30;99.80;;;;;;5027235;28;20038;-77
2023/06/14 09:11:54;;;;;;;11.70;10.27;;;29.20;99.10;;;;;;5026342;28;20482;-77
2023/06/14 09:14:23;;;;;;;11.95;10.75;;;29.30;99.90;;;;;;5027326;28;20371;-75
2023/06/14 09:16:54;;;;;;;14.65;13.32;;;29.50;98.90;;;;;;5026294;28;20037;-75
2023/06/14 09:19:26;;;;;;;12.70;11.48;;;29.50;97.70;;;;;;5027289;28;20033;-76
2023/06/14 09:21:53;;;;;;;14.98;11.77;;;29.60;96.80;;;;;;5011703;28;20516;-75
2023/06/14 09:24:19;;;;;;;11.85;10.85;;;29.40;96.90;;;;;;5027361;28;20030;-74
2023/06/14 09:26:48;;;;;;;11.48;10.15;;;29.50;96.60;;;;;;5026945;28;20034;-75
2023/06/14 09:29:16;;;;;;;11.75;10.55;;;29.70;96.60;;;;;;5010350;28;20065;-74
2023/06/14 09:31:42;;;;;;;11.18;10.15;;;29.60;96.70;;;;;;5011490;28;20037;-74
2023/06/14 09:34:09;;;;;;;11.48;10.23;;;29.70;96.70;;;;;;5026991;28;20034;-75
2023/06/14 09:36:35;;;;;;;11.60;10.55;;;30.00;97.90;;;;;;5015083;28;20483;-75
2023/06/14 09:39:05;;;;;;;12.50;10.88;;;30.10;96.80;;;;;;5047414;28;20455;-75
2023/06/14 09:41:33;;;;;;;12.07;10.82;;;30.10;97.40;;;;;;5026968;28;20053;-75
2023/06/14 09:44:00;;;;;;;12.38;11.25;;;30.30;96.10;;;;;;5027109;28;20038;-75
2023/06/14 09:46:27;;;;;;;12.85;11.50;;;30.20;96.00;;;;;;5005588;28;20049;-75
2023/06/14 09:48:53;;;;;;;13.55;11.98;;;30.20;95.40;;;;;;5030531;28;20042;-75
2023/06/14 09:51:20;;;;;;;11.73;10.70;;;30.20;95.50;;;;;;5013807;28;20415;-75
2023/06/14 09:53:47;;;;;;;12.63;11.48;;;30.40;95.90;;;;;;5030542;28;20022;-75
2023/06/14 09:56:13;;;;;;;12.23;11.20;;;30.50;94.20;;;;;;5013919;28;20046;-75
2023/06/14 09:58:39;;;;;;;12.32;11.02;;;30.40;93.80;;;;;;5030209;28;20022;-75
2023/06/14 10:01:05;;;;;;;12.10;11.00;;;30.20;93.80;;;;;;5029650;28;20149;-77
2023/06/14 10:03:31;;;;;;;11.77;10.82;;;30.20;94.40;;;;;;4997540;28;20034;-75
2023/06/14 10:06:01;;;;;;;12.73;11.43;;;30.30;93.70;;;;;;5013503;28;20044;-75
2023/06/14 10:08:27;;;;;;;11.65;10.55;;;30.40;93.80;;;;;;5030116;28;20022;-75
2023/06/14 10:10:55;;;;;;;11.55;10.20;;;30.50;92.80;;;;;;5029963;28;20042;-74
2023/06/14 10:13:21;;;;;;;10.68;9.65;;;30.50;93.40;;;;;;5013326;28;20034;-75
2023/06/14 10:16:10;;;;;;;13.07;11.43;;;30.60;93.20;;;;;;4997015;28;20040;-75
2023/06/14 10:18:49;;;;;;;13.10;11.88;;;30.90;93.00;;;;;;5013814;28;20419;-75
2023/06/14 10:21:38;;;;;;;11.45;10.55;;;30.80;92.20;;;;;;5029617;28;20045;-74
2023/06/14 10:24:06;;;;;;;11.82;10.75;;;30.80;91.30;;;;;;5014883;28;20144;-75
2023/06/14 10:26:32;;;;;;;11.43;10.32;;;30.70;90.90;;;;;;5029919;28;20032;-75
2023/06/14 10:29:01;;;;;;;12.57;11.38;;;30.60;92.50;;;;;;5029553;28;20045;-74
2023/06/14 10:31:43;;;;;;;12.25;11.10;;;30.80;91.70;;;;;;5001588;28;20511;-75
2023/06/14 10:34:11;;;;;;;12.93;11.73;;;30.80;91.00;;;;;;5025719;28;20026;-75
2023/06/14 10:36:38;;;;;;;12.27;11.02;;;30.90;91.30;;;;;;5009698;28;20034;-74
2023/06/14 10:39:05;;;;;;;13.32;12.27;;;30.90;91.30;;;;;;5010014;28;20440;-75
2023/06/14 10:41:39;;;;;;;12.30;11.10;;;30.90;90.20;;;;;;4994602;28;20030;-75
2023/06/14 10:44:14;;;;;;;11.52;10.43;;;30.90;90.60;;;;;;5025493;28;20049;-75
2023/06/14 10:46:45;;;;;;;13.18;11.95;;;30.70;86.60;;;;;;5007228;28;20387;-75
2023/06/14 10:49:11;;;;;;;13.15;11.80;;;30.60;86.50;;;;;;5011938;28;20046;-74
2023/06/14 10:51:48;;;;;;;10.88;9.88;;;30.70;84.20;;;;;;5012688;28;20494;-74
2023/06/14 10:54:14;;;;;;;13.27;11.02;;;30.90;88.00;;;;;;5013147;28;20026;-75
2023/06/14 10:56:50;;;;;;;12.85;11.93;;;31.00;85.20;;;;;;5028662;28;20474;-76
2023/06/14 10:59:17;;;;;;;12.00;10.90;;;31.00;84.00;;;;;;5029314;28;20034;-75
2023/06/14 11:02:12;;;;;;;12.25;10.48;;;30.80;83.70;;;;;;5028743;28;20030;-74
2023/06/14 11:04:50;;;;;;;12.77;11.15;;;30.80;84.90;;;;;;5012959;28;20391;-75
2023/06/14 11:07:38;;;;;;;13.13;11.77;;;30.80;88.30;;;;;;5012368;28;20026;-75
2023/06/14 11:10:23;;;;;;;13.45;12.27;;;30.80;86.30;;;;;;5012803;28;20533;-75
2023/06/14 11:12:49;;;;;;;13.10;11.90;;;31.00;83.90;;;;;;5013688;28;20030;-75
2023/06/14 11:15:15;;;;;;;12.57;11.57;;;31.10;83.60;;;;;;5028252;28;20052;-75
2023/06/14 11:17:53;;;;;;;12.38;11.43;;;31.00;82.10;;;;;;5029030;28;20386;-75
2023/06/14 11:20:20;;;;;;;12.63;11.48;;;30.80;80.40;;;;;;5012310;28;20038;-75
2023/06/14 11:22:47;;;;;;;12.70;11.73;;;30.90;79.80;;;;;;5029036;28;20033;-75
2023/06/14 11:25:13;;;;;;;12.48;11.40;;;31.00;78.60;;;;;;5011755;28;20037;-71
2023/06/14 11:27:41;;;;;;;11.80;10.70;;;31.00;78.40;;;;;;5028886;28;20034;-74
2023/06/14 11:30:08;;;;;;;12.10;10.95;;;30.80;78.60;;;;;;5028339;28;20043;-75
2023/06/14 11:32:34;;;;;;;11.88;10.77;;;30.70;78.70;;;;;;5028478;28;20382;-75
2023/06/14 11:35:00;;;;;;;12.25;11.05;;;30.70;73.40;;;;;;5028816;28;20026;-74
2023/06/14 11:37:32;;;;;;;12.15;10.90;;;30.60;74.60;;;;;;5028249;28;20026;-75
2023/06/14 11:39:59;;;;;;;13.10;12.00;;;30.50;76.90;;;;;;5027559;28;20033;-75
2023/06/14 11:42:29;;;;;;;11.57;10.60;;;30.60;77.70;;;;;;5044791;28;20387;-75
2023/06/14 11:44:55;;;;;;;10.70;9.70;;;30.80;78.00;;;;;;5044762;28;20471;-75
2023/06/14 11:47:22;;;;;;;12.75;11.68;;;31.00;81.10;;;;;;5012397;28;20041;-75
2023/06/14 11:49:48;;;;;;;13.18;12.18;;;31.20;72.20;;;;;;5011596;28;20042;-75
2023/06/14 11:52:14;;;;;;;13.05;11.88;;;31.30;72.80;;;;;;5011875;28;20052;-75
2023/06/14 11:54:41;;;;;;;11.82;10.73;;;31.50;75.60;;;;;;5028056;28;20030;-75
2023/06/14 11:57:07;;;;;;;11.70;10.90;;;31.70;71.20;;;;;;5027615;28;20037;-74
2023/06/14 11:59:40;;;;;;;11.63;10.65;;;31.80;70.00;;;;;;5028019;28;20033;-75
2023/06/14 12:02:07;;;;;;;11.15;9.63;;;31.90;68.50;;;;;;5007747;28;20041;-75
2023/06/14 12:04:33;;;;;;;13.07;11.88;;;31.60;64.40;;;;;;5013065;28;20112;-75
2023/06/14 12:07:14;;;;;;;13.05;12.00;;;31.50;64.30;;;;;;4997836;28;20026;-75
2023/06/14 12:09:43;;;;;;;12.93;12.02;;;31.50;63.40;;;;;;5007800;28;20049;-74
2023/06/14 12:12:11;;;;;;;11.48;10.52;;;31.70;63.30;;;;;;5024174;28;20498;-75
2023/06/14 12:14:37;;;;;;;12.00;10.70;;;31.80;64.80;;;;;;5024671;28;20068;-75
2023/06/14 12:17:07;;;;;;;11.98;10.88;;;31.80;64.80;;;;;;5004233;28;20492;-75
2023/06/14 12:19:33;;;;;;;12.43;11.35;;;32.00;66.90;;;;;;4972415;28;20038;-75
2023/06/14 12:21:59;;;;;;;12.18;11.15;;;32.10;62.00;;;;;;5003469;28;20034;-75
2023/06/14 12:24:29;;;;;;;13.30;12.20;;;32.00;62.40;;;;;;5024205;28;20041;-75
2023/06/14 12:26:59;;;;;;;13.20;12.00;;;32.10;63.30;;;;;;4992922;28;20034;-75
2023/06/14 12:29:25;;;;;;;11.45;10.43;;;32.00;64.30;;;;;;4993067;28;20396;-75
2023/06/14 12:31:54;;;;;;;11.93;10.98;;;32.00;65.50;;;;;;5038586;28;20042;-75